createdAt,value
2022-11-30T00:00:48.631Z,5.40
2022-11-30T00:03:34.019Z,5.80
2022-11-30T00:06:23.218Z,6.87
2022-11-30T00:09:08.508Z,5.90
2022-11-30T00:11:53.792Z,5.77
2022-11-30T00:14:39.049Z,5.90
2022-11-30T00:17:24.255Z,5.73
2022-11-30T00:20:10.787Z,5.80
2022-11-30T00:22:56.715Z,5.77
2022-11-30T00:25:42.399Z,5.60
2022-11-30T00:28:28.081Z,6.07
2022-11-30T00:31:16.087Z,6.03
2022-11-30T00:34:01.635Z,5.83
2022-11-30T00:36:46.940Z,5.87
2022-11-30T00:39:35.470Z,5.83
2022-11-30T00:42:21.145Z,6.23
2022-11-30T00:45:06.892Z,5.40
2022-11-30T00:47:52.114Z,5.77
2022-11-30T00:50:37.453Z,6.27
2022-11-30T00:53:22.719Z,6.00
2022-11-30T00:56:08.999Z,5.80
2022-11-30T00:58:54.187Z,5.57
2022-11-30T01:01:39.554Z,5.80
2022-11-30T01:04:24.988Z,5.80
2022-11-30T01:07:10.265Z,5.97
2022-11-30T01:09:55.484Z,5.63
2022-11-30T01:12:40.716Z,6.03
2022-11-30T01:15:26.002Z,5.80
2022-11-30T01:18:11.531Z,5.80
2022-11-30T01:20:57.043Z,5.93
2022-11-30T01:23:43.135Z,5.83
2022-11-30T01:26:28.286Z,6.13
2022-11-30T01:29:13.652Z,6.27
2022-11-30T01:31:58.852Z,5.70
2022-11-30T01:34:44.148Z,6.03
2022-11-30T01:37:32.633Z,5.87
2022-11-30T01:40:18.072Z,5.97
2022-11-30T01:43:03.247Z,6.20
2022-11-30T01:45:49.905Z,5.87
2022-11-30T01:48:35.405Z,6.50
2022-11-30T01:51:21.073Z,6.77
2022-11-30T01:54:09.874Z,6.40
2022-11-30T01:57:06.818Z,6.13
2022-11-30T01:59:54.797Z,6.30
2022-11-30T02:02:54.996Z,5.70
2022-11-30T02:05:41.723Z,6.30
2022-11-30T02:08:28.479Z,6.57
2022-11-30T02:11:15.582Z,5.83
2022-11-30T02:14:26.572Z,6.37
2022-11-30T02:17:32.748Z,5.97
2022-11-30T02:20:20.870Z,5.83
2022-11-30T02:23:18.827Z,6.07
2022-11-30T02:26:26.438Z,6.40
2022-11-30T02:29:27.117Z,6.10
2022-11-30T02:32:21.659Z,6.50
2022-11-30T02:35:09.355Z,5.77
2022-11-30T02:37:57.778Z,6.23
2022-11-30T02:40:43.195Z,5.80
2022-11-30T02:43:30.866Z,6.33
2022-11-30T02:46:31.417Z,5.87
2022-11-30T02:49:34.680Z,6.17
2022-11-30T02:55:11.380Z,6.00
2022-11-30T02:57:57.051Z,5.60
2022-11-30T03:00:42.390Z,6.07
2022-11-30T03:03:27.717Z,6.17
2022-11-30T03:06:12.995Z,6.00
2022-11-30T03:08:58.404Z,6.30
2022-11-30T03:11:43.821Z,5.77
2022-11-30T03:14:29.042Z,6.10
2022-11-30T03:17:14.462Z,5.67
2022-11-30T03:20:00.185Z,6.23
2022-11-30T03:22:45.608Z,5.43
2022-11-30T03:25:30.944Z,6.03
2022-11-30T03:28:16.128Z,6.10
2022-11-30T03:31:02.422Z,6.67
2022-11-30T03:33:48.146Z,5.70
2022-11-30T03:36:33.543Z,5.73
2022-11-30T03:39:18.867Z,5.20
2022-11-30T03:42:04.328Z,6.63
2022-11-30T03:44:49.833Z,6.07
2022-11-30T03:47:35.022Z,5.63
2022-11-30T03:50:20.338Z,5.60
2022-11-30T03:53:05.552Z,5.83
2022-11-30T03:55:55.819Z,5.43
2022-11-30T03:58:42.248Z,5.57
2022-11-30T04:01:28.136Z,5.27
2022-11-30T04:04:13.452Z,5.80
2022-11-30T04:06:59.910Z,4.80
2022-11-30T04:09:45.141Z,5.33
2022-11-30T04:12:30.584Z,5.37
2022-11-30T04:15:16.003Z,5.37
2022-11-30T04:18:01.337Z,5.60
2022-11-30T04:20:46.983Z,5.67
2022-11-30T04:23:35.900Z,4.93
2022-11-30T04:26:21.463Z,5.80
2022-11-30T04:29:06.593Z,6.27
2022-11-30T04:31:51.838Z,6.40
2022-11-30T04:34:37.267Z,6.10
2022-11-30T04:37:22.539Z,6.43
2022-11-30T04:40:08.811Z,6.57
2022-11-30T04:42:54.108Z,6.33
2022-11-30T04:45:39.836Z,6.60
2022-11-30T04:48:25.528Z,6.33
2022-11-30T04:51:10.893Z,5.90
2022-11-30T04:53:56.300Z,6.37
2022-11-30T04:56:41.717Z,5.73
2022-11-30T04:59:26.868Z,6.40
2022-11-30T05:02:12.299Z,6.20
2022-11-30T05:04:57.639Z,6.10
2022-11-30T05:07:43.197Z,5.93
2022-11-30T05:10:30.022Z,6.17
2022-11-30T05:13:15.293Z,6.13
2022-11-30T05:16:00.678Z,5.97
2022-11-30T05:18:46.299Z,9.03
2022-11-30T05:21:32.402Z,9.20
2022-11-30T05:24:17.924Z,9.90
2022-11-30T05:27:07.760Z,10.07
2022-11-30T05:29:58.597Z,9.73
2022-11-30T05:32:44.128Z,8.80
2022-11-30T05:35:29.464Z,8.43
2022-11-30T05:38:15.283Z,8.80
2022-11-30T05:41:02.980Z,7.97
2022-11-30T05:43:48.989Z,7.53
2022-11-30T05:46:39.647Z,7.60
2022-11-30T05:49:26.395Z,6.93
2022-11-30T05:52:11.863Z,7.00
2022-11-30T05:54:57.355Z,7.27
2022-11-30T05:57:42.917Z,7.00
2022-11-30T06:00:28.213Z,7.00
2022-11-30T06:03:13.619Z,7.03
2022-11-30T06:05:59.356Z,8.60
2022-11-30T06:08:45.833Z,10.10
2022-11-30T06:11:31.488Z,9.63
2022-11-30T06:14:17.119Z,9.33
2022-11-30T06:17:02.695Z,9.33
2022-11-30T06:19:48.242Z,9.80
2022-11-30T06:22:33.780Z,9.50
2022-11-30T06:25:19.640Z,9.13
2022-11-30T06:28:10.069Z,9.03
2022-11-30T06:31:02.340Z,8.47
2022-11-30T06:33:48.702Z,8.40
2022-11-30T06:36:36.197Z,8.83
2022-11-30T06:39:43.002Z,8.60
2022-11-30T06:42:30.171Z,9.10
2022-11-30T06:45:15.805Z,8.50
2022-11-30T06:48:01.813Z,7.17
2022-11-30T06:50:50.202Z,7.80
2022-11-30T06:53:36.376Z,8.03
2022-11-30T06:56:22.061Z,8.20
2022-11-30T06:59:07.846Z,7.43
2022-11-30T07:01:53.120Z,7.43
2022-11-30T07:04:38.599Z,7.70
2022-11-30T07:07:24.531Z,8.10
2022-11-30T07:10:10.145Z,7.13
2022-11-30T07:12:55.922Z,7.73
2022-11-30T07:15:42.856Z,7.37
2022-11-30T07:18:31.947Z,7.40
2022-11-30T07:21:17.729Z,7.13
2022-11-30T07:24:21.657Z,7.03
2022-11-30T07:27:07.007Z,6.53
2022-11-30T07:29:52.519Z,6.77
2022-11-30T07:32:37.714Z,7.67
2022-11-30T07:35:23.117Z,7.87
2022-11-30T07:38:10.021Z,6.80
2022-11-30T07:40:55.096Z,6.97
2022-11-30T07:43:41.043Z,6.73
2022-11-30T07:46:26.686Z,7.40
2022-11-30T07:49:12.084Z,7.00
2022-11-30T07:51:57.453Z,6.60
2022-11-30T07:54:42.585Z,6.70
2022-11-30T07:57:27.897Z,7.73
2022-11-30T08:00:13.705Z,6.37
2022-11-30T08:02:59.007Z,7.30
2022-11-30T08:05:44.388Z,6.80
2022-11-30T08:08:34.238Z,6.90
2022-11-30T08:11:22.056Z,6.73
2022-11-30T08:14:07.344Z,6.70
2022-11-30T08:16:52.608Z,7.03
2022-11-30T08:19:37.968Z,7.37
2022-11-30T08:22:23.303Z,6.77
2022-11-30T08:25:09.483Z,6.93
2022-11-30T08:27:54.667Z,6.60
2022-11-30T08:30:40.045Z,6.80
2022-11-30T08:33:29.372Z,7.13
2022-11-30T08:36:22.213Z,6.90
2022-11-30T08:39:10.832Z,7.50
2022-11-30T08:41:56.169Z,7.17
2022-11-30T08:44:41.368Z,7.23
2022-11-30T08:47:26.663Z,7.63
2022-11-30T08:50:11.962Z,6.77
2022-11-30T08:53:00.537Z,7.27
2022-11-30T08:56:04.370Z,7.13
2022-11-30T08:58:50.437Z,6.83
2022-11-30T09:01:35.783Z,7.40
2022-11-30T09:04:21.140Z,7.00
2022-11-30T09:07:06.259Z,6.70
2022-11-30T09:09:51.675Z,7.03
2022-11-30T09:12:38.586Z,7.07
2022-11-30T09:15:24.175Z,6.93
2022-11-30T09:18:09.612Z,6.70
2022-11-30T09:20:59.999Z,6.80
2022-11-30T09:23:46.152Z,6.97
2022-11-30T09:26:31.690Z,6.60
2022-11-30T09:29:17.250Z,6.37
2022-11-30T09:32:02.508Z,6.63
2022-11-30T09:34:50.611Z,7.30
2022-11-30T09:37:36.162Z,6.77
2022-11-30T09:40:24.042Z,6.67
2022-11-30T09:43:27.436Z,6.50
2022-11-30T09:46:13.404Z,6.80
2022-11-30T09:49:39.505Z,6.50
2022-11-30T09:52:35.780Z,6.90
2022-11-30T09:55:31.511Z,6.97
2022-11-30T09:58:27.975Z,7.03
2022-11-30T10:01:19.413Z,7.10
2022-11-30T10:04:04.818Z,6.27
2022-11-30T10:07:27.738Z,6.50
2022-11-30T10:10:31.568Z,6.43
2022-11-30T10:13:55.199Z,6.43
2022-11-30T10:16:43.505Z,6.63
2022-11-30T10:20:04.292Z,6.13
2022-11-30T10:23:20.680Z,6.27
2022-11-30T10:26:16.219Z,6.90
2022-11-30T10:29:27.199Z,6.77
2022-11-30T10:32:19.771Z,6.40
2022-11-30T10:35:33.579Z,6.17
2022-11-30T10:38:41.999Z,6.15
2022-11-30T10:41:48.879Z,5.93
2022-11-30T10:44:40.028Z,6.63
2022-11-30T10:47:28.634Z,7.33
2022-11-30T10:50:15.843Z,6.70
2022-11-30T10:53:02.197Z,6.97
2022-11-30T10:56:00.620Z,6.17
2022-11-30T10:59:04.536Z,6.43
2022-11-30T11:04:35.893Z,6.40
2022-11-30T11:07:21.309Z,6.17
2022-11-30T11:10:16.447Z,6.60
2022-11-30T11:13:02.901Z,5.87
2022-11-30T11:16:00.724Z,6.40
2022-11-30T11:18:57.318Z,6.23
2022-11-30T11:21:49.148Z,6.10
2022-11-30T11:24:35.469Z,6.57
2022-11-30T11:27:30.827Z,6.73
2022-11-30T11:30:29.679Z,6.63
2022-11-30T11:33:15.141Z,6.13
2022-11-30T11:36:06.371Z,6.67
2022-11-30T11:38:51.990Z,6.73
2022-11-30T11:41:38.873Z,7.07
2022-11-30T11:44:28.020Z,6.97
2022-11-30T11:47:25.509Z,6.50
2022-11-30T11:51:05.643Z,6.33
2022-11-30T11:53:54.041Z,6.70
2022-11-30T11:56:40.073Z,6.38
2022-11-30T11:59:47.557Z,6.63
2022-11-30T12:02:52.203Z,6.10
2022-11-30T12:05:45.541Z,6.70
2022-11-30T12:08:38.430Z,6.57
2022-11-30T12:11:30.006Z,6.70
2022-11-30T12:14:17.611Z,6.63
2022-11-30T12:17:06.424Z,6.00
2022-11-30T12:20:18.348Z,6.03
2022-11-30T12:23:52.287Z,6.23
2022-11-30T12:27:09.895Z,5.95
2022-11-30T12:30:02.308Z,5.50
2022-11-30T12:32:59.609Z,6.03
2022-11-30T12:35:56.932Z,5.97
2022-11-30T12:39:19.859Z,5.93
2022-11-30T12:42:14.657Z,5.37
2022-11-30T12:45:19.299Z,6.07
2022-11-30T12:48:22.848Z,6.17
2022-11-30T12:51:08.307Z,5.55
2022-11-30T12:54:02.754Z,6.30
2022-11-30T12:56:55.073Z,5.43
2022-11-30T12:59:49.518Z,5.70
2022-11-30T13:03:08.198Z,5.27
2022-11-30T13:06:01.147Z,5.80
2022-11-30T13:08:55.081Z,6.32
2022-11-30T13:14:30.870Z,6.10
2022-11-30T13:17:19.203Z,5.77
2022-11-30T13:20:28.770Z,6.50
2022-11-30T13:23:35.963Z,6.10
2022-11-30T13:26:45.074Z,6.00
2022-11-30T13:29:56.077Z,5.73
2022-11-30T13:32:58.592Z,5.67
2022-11-30T13:35:54.135Z,6.07
2022-11-30T13:38:39.456Z,6.77
2022-11-30T13:41:25.241Z,6.17
2022-11-30T13:44:29.576Z,6.03
2022-11-30T13:47:27.795Z,6.40
2022-11-30T13:50:26.726Z,5.90
2022-11-30T13:53:28.798Z,5.43
2022-11-30T13:56:34.895Z,6.20
2022-11-30T13:59:23.473Z,5.87
2022-11-30T14:02:34.093Z,6.30
2022-11-30T14:05:38.102Z,6.47
2022-11-30T14:08:23.970Z,6.30
2022-11-30T14:11:34.375Z,6.53
2022-11-30T14:14:45.759Z,6.67
2022-11-30T14:17:35.198Z,5.67
2022-11-30T14:20:37.719Z,6.17
2022-11-30T14:23:47.107Z,5.95
2022-11-30T14:26:40.174Z,6.10
2022-11-30T14:29:34.823Z,6.50
2022-11-30T14:32:30.291Z,6.23
2022-11-30T14:35:18.393Z,7.40
2022-11-30T14:38:16.374Z,8.00
2022-11-30T14:41:01.611Z,7.00
2022-11-30T14:43:59.140Z,7.03
2022-11-30T14:46:44.568Z,7.13
2022-11-30T14:49:30.405Z,6.67
2022-11-30T14:52:31.252Z,7.10
2022-11-30T14:55:26.490Z,7.20
2022-11-30T14:58:23.901Z,7.63
2022-11-30T15:01:23.979Z,6.70
2022-11-30T15:04:17.640Z,6.70
2022-11-30T15:07:03.300Z,6.50
2022-11-30T15:09:51.941Z,7.10
2022-11-30T15:12:40.551Z,6.93
2022-11-30T15:15:28.071Z,6.27
2022-11-30T15:18:19.645Z,6.73
2022-11-30T15:21:17.330Z,7.00
2022-11-30T15:24:03.100Z,7.27
2022-11-30T15:27:04.310Z,7.70
2022-11-30T15:32:49.873Z,7.33
2022-11-30T15:35:57.359Z,7.32
2022-11-30T15:38:41.808Z,6.87
2022-11-30T15:41:27.424Z,6.93
2022-11-30T15:44:36.533Z,6.83
2022-11-30T15:47:48.979Z,8.17
2022-11-30T15:50:39.549Z,7.57
2022-11-30T15:53:47.219Z,8.90
2022-11-30T15:56:32.661Z,7.80
2022-11-30T15:59:25.654Z,7.93
2022-11-30T16:02:43.753Z,7.18
2022-11-30T16:05:28.992Z,7.50
2022-11-30T16:08:17.942Z,9.07
2022-11-30T16:11:08.078Z,9.57
2022-11-30T16:13:53.548Z,14.10
2022-11-30T16:16:38.955Z,16.63
2022-11-30T16:19:24.245Z,20.83
2022-11-30T16:22:12.793Z,25.20
2022-11-30T16:24:58.229Z,28.33
2022-11-30T16:27:43.973Z,29.83
2022-11-30T16:30:30.547Z,30.37
2022-11-30T16:33:18.990Z,30.17
2022-11-30T16:36:09.099Z,29.50
2022-11-30T16:38:54.929Z,27.73
2022-11-30T16:41:40.737Z,26.47
2022-11-30T16:44:26.073Z,25.60
2022-11-30T16:47:11.340Z,26.67
2022-11-30T16:49:56.756Z,25.20
2022-11-30T16:52:42.890Z,23.30
2022-11-30T16:55:35.018Z,23.93
2022-11-30T16:58:20.297Z,22.63
2022-11-30T17:01:07.523Z,21.33
2022-11-30T17:03:53.213Z,21.90
2022-11-30T17:06:38.473Z,21.53
2022-11-30T17:09:23.740Z,19.90
2022-11-30T17:12:09.523Z,20.83
2022-11-30T17:14:54.723Z,20.60
2022-11-30T17:17:40.202Z,20.80
2022-11-30T17:20:27.096Z,16.30
2022-11-30T17:23:12.859Z,16.27
2022-11-30T17:25:58.177Z,15.50
2022-11-30T17:28:43.699Z,16.40
2022-11-30T17:31:29.743Z,15.30
2022-11-30T17:34:15.301Z,16.50
2022-11-30T17:37:00.649Z,15.43
2022-11-30T17:39:45.891Z,15.97
2022-11-30T17:42:31.147Z,14.77
2022-11-30T17:45:16.569Z,12.73
2022-11-30T17:48:01.743Z,13.27
2022-11-30T17:50:52.336Z,14.10
2022-11-30T17:53:42.247Z,13.80
2022-11-30T17:56:27.829Z,13.53
2022-11-30T17:59:13.351Z,12.73
2022-11-30T18:01:59.001Z,12.53
2022-11-30T18:04:44.414Z,12.27
2022-11-30T18:07:30.206Z,12.83
2022-11-30T18:10:16.287Z,12.30
2022-11-30T18:13:01.422Z,12.20
2022-11-30T18:15:47.463Z,13.43
2022-11-30T18:18:33.367Z,11.67
2022-11-30T18:21:21.470Z,12.17
2022-11-30T18:24:07.667Z,12.47
2022-11-30T18:26:53.537Z,11.77
2022-11-30T18:29:38.800Z,12.80
2022-11-30T18:32:24.105Z,12.23
2022-11-30T18:35:10.065Z,11.50
2022-11-30T18:37:55.909Z,12.07
2022-11-30T18:40:42.158Z,11.60
2022-11-30T18:43:27.977Z,11.80
2022-11-30T18:46:14.422Z,12.47
2022-11-30T18:49:01.191Z,12.63
2022-11-30T18:51:46.462Z,12.57
2022-11-30T18:54:33.242Z,12.33
2022-11-30T18:57:18.689Z,11.70
2022-11-30T19:00:05.632Z,11.17
2022-11-30T19:02:51.287Z,11.87
2022-11-30T19:05:39.677Z,10.73
2022-11-30T19:08:25.245Z,11.33
2022-11-30T19:11:10.693Z,10.93
2022-11-30T19:13:57.452Z,10.90
2022-11-30T19:16:43.753Z,10.43
2022-11-30T19:19:29.049Z,10.87
2022-11-30T19:22:14.256Z,11.30
2022-11-30T19:24:59.792Z,10.43
2022-11-30T19:27:45.149Z,10.73
2022-11-30T19:30:30.550Z,10.67
2022-11-30T19:33:15.761Z,10.47
2022-11-30T19:36:02.144Z,11.10
2022-11-30T19:38:47.870Z,10.53
2022-11-30T19:41:33.229Z,10.20
2022-11-30T19:44:18.552Z,10.43
2022-11-30T19:47:03.752Z,10.57
2022-11-30T19:49:48.977Z,10.07
2022-11-30T19:52:34.375Z,10.37
2022-11-30T19:55:19.629Z,10.50
2022-11-30T19:58:04.877Z,10.07
2022-11-30T20:00:50.117Z,10.07
2022-11-30T20:03:35.663Z,9.73
2022-11-30T20:06:25.173Z,9.03
2022-11-30T20:09:11.293Z,10.30
2022-11-30T20:11:57.192Z,9.50
2022-11-30T20:14:42.472Z,8.90
2022-11-30T20:17:27.751Z,9.87
2022-11-30T20:20:13.786Z,9.10
2022-11-30T20:22:59.165Z,10.37
2022-11-30T20:25:44.668Z,10.43
2022-11-30T20:28:29.997Z,9.83
2022-11-30T20:31:17.581Z,9.57
2022-11-30T20:34:03.665Z,9.40
2022-11-30T20:36:48.904Z,10.20
2022-11-30T20:39:34.160Z,10.37
2022-11-30T20:42:19.480Z,9.63
2022-11-30T20:45:05.120Z,9.90
2022-11-30T20:47:50.564Z,8.90
2022-11-30T20:50:36.178Z,8.93
2022-11-30T20:53:21.587Z,9.00
2022-11-30T20:56:08.943Z,9.43
2022-11-30T20:58:54.004Z,9.13
2022-11-30T21:01:44.633Z,8.93
2022-11-30T21:04:30.214Z,9.80
2022-11-30T21:07:16.279Z,10.00
2022-11-30T21:10:01.844Z,9.50
2022-11-30T21:12:47.115Z,9.83
2022-11-30T21:15:32.512Z,9.37
2022-11-30T21:18:17.770Z,9.67
2022-11-30T21:21:07.917Z,10.13
2022-11-30T21:23:53.608Z,9.80
2022-11-30T21:26:41.509Z,9.90
2022-11-30T21:29:27.088Z,9.80
2022-11-30T21:32:12.765Z,10.10
2022-11-30T21:34:58.027Z,10.77
2022-11-30T21:37:43.366Z,10.13
2022-11-30T21:40:28.602Z,10.37
2022-11-30T21:43:13.862Z,10.97
2022-11-30T21:46:11.690Z,10.23
2022-11-30T21:48:57.435Z,11.17
2022-11-30T21:51:43.919Z,10.60
2022-11-30T21:54:29.414Z,10.93
2022-11-30T21:57:14.564Z,11.30
2022-11-30T21:59:59.824Z,10.83
2022-11-30T22:02:45.835Z,11.20
2022-11-30T22:05:31.013Z,11.20
2022-11-30T22:08:16.432Z,10.87
2022-11-30T22:11:04.165Z,10.63
2022-11-30T22:13:51.231Z,11.27
2022-11-30T22:16:37.014Z,11.73
2022-11-30T22:19:22.783Z,11.33
2022-11-30T22:22:08.075Z,10.77
2022-11-30T22:24:55.273Z,11.03
2022-11-30T22:27:40.441Z,11.77
2022-11-30T22:30:25.712Z,11.43
2022-11-30T22:33:11.062Z,12.20
2022-11-30T22:35:56.396Z,12.20
2022-11-30T22:38:42.199Z,11.80
2022-11-30T22:41:28.493Z,11.97
2022-11-30T22:44:15.969Z,12.27
2022-11-30T22:47:01.313Z,12.07
2022-11-30T22:49:46.806Z,12.13
2022-11-30T22:53:01.336Z,12.80
2022-11-30T22:55:37.959Z,12.63
2022-11-30T22:58:23.094Z,12.47
2022-11-30T23:01:10.652Z,12.57
2022-11-30T23:04:01.252Z,12.77
2022-11-30T23:06:48.228Z,12.83
2022-11-30T23:09:33.722Z,12.80
2022-11-30T23:12:36.096Z,11.97
2022-11-30T23:15:24.593Z,12.17
2022-11-30T23:18:09.975Z,12.63
2022-11-30T23:20:56.209Z,12.07
2022-11-30T23:23:43.140Z,12.07
2022-11-30T23:26:31.298Z,13.00
2022-11-30T23:29:17.742Z,13.23
2022-11-30T23:32:03.343Z,12.07
2022-11-30T23:34:50.751Z,12.17
2022-11-30T23:37:36.621Z,12.50
2022-11-30T23:40:21.771Z,12.63
2022-11-30T23:43:07.191Z,13.37
2022-11-30T23:45:52.404Z,12.77
2022-11-30T23:48:38.319Z,12.97
2022-11-30T23:51:23.900Z,13.03
2022-11-30T23:54:09.325Z,13.00
2022-11-30T23:56:54.872Z,13.40
2022-11-30T23:59:40.084Z,12.60
